sensor_id;sensor_type;location;lat;lon;timestamp;pressure;altitude;pressure_sealevel;temperature;humidity
61318;BME280;47201;40.428;-8.436;2023-03-01T00:00:39;101206.97;;;3.36;100.00
61318;BME280;47201;40.428;-8.436;2023-03-01T00:02:40;101216.38;;;3.33;100.00
61318;BME280;47201;40.428;-8.436;2023-03-01T00:04:41;101212.13;;;3.36;100.00
61318;BME280;47201;40.428;-8.436;2023-03-01T00:06:44;101208.50;;;3.30;100.00
61318;BME280;47201;40.428;-8.436;2023-03-01T00:09:04;101200.41;;;3.21;100.00
61318;BME280;47201;40.428;-8.436;2023-03-01T00:11:25;101203.00;;;3.21;100.00
61318;BME280;47201;40.428;-8.436;2023-03-01T00:13:48;101203.06;;;3.23;99.35
61318;BME280;47201;40.428;-8.436;2023-03-01T00:16:08;101202.91;;;3.18;98.52
61318;BME280;47201;40.428;-8.436;2023-03-01T00:18:10;101195.16;;;3.18;99.51
61318;BME280;47201;40.428;-8.436;2023-03-01T00:20:11;101197.53;;;2.89;100.00
61318;BME280;47201;40.428;-8.436;2023-03-01T00:22:11;101203.03;;;2.76;100.00
61318;BME280;47201;40.428;-8.436;2023-03-01T00:24:12;101203.63;;;2.68;100.00
61318;BME280;47201;40.428;-8.436;2023-03-01T00:26:31;101203.97;;;2.55;100.00
61318;BME280;47201;40.428;-8.436;2023-03-01T00:28:32;101197.94;;;2.54;100.00
61318;BME280;47201;40.428;-8.436;2023-03-01T00:30:32;101200.47;;;2.53;100.00
61318;BME280;47201;40.428;-8.436;2023-03-01T00:32:33;101208.28;;;2.54;100.00
61318;BME280;47201;40.428;-8.436;2023-03-01T00:34:33;101215.44;;;2.62;100.00
61318;BME280;47201;40.428;-8.436;2023-03-01T00:36:52;101209.44;;;2.63;100.00
61318;BME280;47201;40.428;-8.436;2023-03-01T00:38:54;101216.28;;;2.62;100.00
61318;BME280;47201;40.428;-8.436;2023-03-01T00:41:17;101210.94;;;2.58;100.00
61318;BME280;47201;40.428;-8.436;2023-03-01T00:43:18;101204.97;;;2.59;100.00
61318;BME280;47201;40.428;-8.436;2023-03-01T00:45:37;101202.34;;;2.57;100.00
61318;BME280;47201;40.428;-8.436;2023-03-01T00:47:38;101199.63;;;2.54;100.00
61318;BME280;47201;40.428;-8.436;2023-03-01T00:49:57;101196.19;;;2.53;100.00
61318;BME280;47201;40.428;-8.436;2023-03-01T00:52:16;101186.31;;;2.66;100.00
61318;BME280;47201;40.428;-8.436;2023-03-01T00:54:17;101182.50;;;2.79;100.00
61318;BME280;47201;40.428;-8.436;2023-03-01T00:56:17;101170.53;;;2.81;100.00
61318;BME280;47201;40.428;-8.436;2023-03-01T00:58:18;101159.50;;;2.85;100.00
61318;BME280;47201;40.428;-8.436;2023-03-01T01:00:38;101157.25;;;2.94;98.92
61318;BME280;47201;40.428;-8.436;2023-03-01T01:02:38;101158.84;;;3.15;96.00
61318;BME280;47201;40.428;-8.436;2023-03-01T01:04:57;101157.47;;;3.25;95.40
61318;BME280;47201;40.428;-8.436;2023-03-01T01:07:16;101156.75;;;3.27;94.09
61318;BME280;47201;40.428;-8.436;2023-03-01T01:09:17;101148.75;;;3.21;94.00
61318;BME280;47201;40.428;-8.436;2023-03-01T01:11:18;101140.69;;;3.12;93.70
61318;BME280;47201;40.428;-8.436;2023-03-01T01:13:37;101138.03;;;3.10;91.59
61318;BME280;47201;40.428;-8.436;2023-03-01T01:15:38;101131.22;;;3.12;92.44
61318;BME280;47201;40.428;-8.436;2023-03-01T01:17:39;101124.66;;;3.22;85.38
61318;BME280;47201;40.428;-8.436;2023-03-01T01:19:59;101126.47;;;3.49;77.41
61318;BME280;47201;40.428;-8.436;2023-03-01T01:22:18;101114.97;;;3.67;78.09
61318;BME280;47201;40.428;-8.436;2023-03-01T01:24:37;101102.47;;;3.79;77.33
61318;BME280;47201;40.428;-8.436;2023-03-01T01:26:37;101098.63;;;3.93;74.38
61318;BME280;47201;40.428;-8.436;2023-03-01T01:28:56;101106.72;;;4.04;73.23
61318;BME280;47201;40.428;-8.436;2023-03-01T01:31:15;101113.03;;;4.14;72.87
61318;BME280;47201;40.428;-8.436;2023-03-01T01:33:17;101119.75;;;4.36;69.42
61318;BME280;47201;40.428;-8.436;2023-03-01T01:35:35;101109.06;;;4.54;70.26
61318;BME280;47201;40.428;-8.436;2023-03-01T01:37:36;101111.03;;;4.62;70.16
61318;BME280;47201;40.428;-8.436;2023-03-01T01:39:55;101106.47;;;4.83;66.89
61318;BME280;47201;40.428;-8.436;2023-03-01T01:42:18;101115.66;;;5.04;65.89
61318;BME280;47201;40.428;-8.436;2023-03-01T01:44:37;101119.69;;;5.24;65.05
61318;BME280;47201;40.428;-8.436;2023-03-01T01:46:38;101120.00;;;5.37;64.62
61318;BME280;47201;40.428;-8.436;2023-03-01T01:48:41;101123.44;;;5.36;63.68
61318;BME280;47201;40.428;-8.436;2023-03-01T01:51:01;101111.66;;;5.49;63.87
61318;BME280;47201;40.428;-8.436;2023-03-01T01:53:02;101106.25;;;5.39;65.21
61318;BME280;47201;40.428;-8.436;2023-03-01T01:57:03;101112.34;;;5.42;64.37
61318;BME280;47201;40.428;-8.436;2023-03-01T01:59:26;101113.50;;;5.53;64.05
61318;BME280;47201;40.428;-8.436;2023-03-01T02:01:27;101114.91;;;5.40;65.71
61318;BME280;47201;40.428;-8.436;2023-03-01T02:03:47;101114.66;;;5.31;65.53
61318;BME280;47201;40.428;-8.436;2023-03-01T02:07:50;101108.56;;;5.29;65.70
61318;BME280;47201;40.428;-8.436;2023-03-01T02:09:53;101114.75;;;5.34;65.19
61318;BME280;47201;40.428;-8.436;2023-03-01T02:12:13;101107.72;;;5.30;66.00
61318;BME280;47201;40.428;-8.436;2023-03-01T02:14:33;101112.56;;;5.17;67.11
61318;BME280;47201;40.428;-8.436;2023-03-01T02:16:33;101117.63;;;5.13;68.22
61318;BME280;47201;40.428;-8.436;2023-03-01T02:18:34;101123.28;;;4.98;68.79
61318;BME280;47201;40.428;-8.436;2023-03-01T02:22:58;101120.94;;;4.76;70.05
61318;BME280;47201;40.428;-8.436;2023-03-01T02:27:26;101116.59;;;4.75;70.06
61318;BME280;47201;40.428;-8.436;2023-03-01T02:29:50;101119.88;;;4.70;70.70
61318;BME280;47201;40.428;-8.436;2023-03-01T02:31:51;101109.44;;;4.67;70.73
61318;BME280;47201;40.428;-8.436;2023-03-01T02:33:54;101101.03;;;4.74;70.13
61318;BME280;47201;40.428;-8.436;2023-03-01T02:35:56;101104.63;;;4.81;69.24
61318;BME280;47201;40.428;-8.436;2023-03-01T02:37:57;101101.47;;;4.89;68.34
61318;BME280;47201;40.428;-8.436;2023-03-01T02:40:03;101082.72;;;5.00;68.13
61318;BME280;47201;40.428;-8.436;2023-03-01T02:42:04;101079.38;;;5.02;68.03
61318;BME280;47201;40.428;-8.436;2023-03-01T02:44:06;101072.72;;;5.12;67.37
61318;BME280;47201;40.428;-8.436;2023-03-01T02:46:17;101077.94;;;5.15;66.74
61318;BME280;47201;40.428;-8.436;2023-03-01T02:48:18;101083.13;;;5.15;66.99
61318;BME280;47201;40.428;-8.436;2023-03-01T02:50:47;101087.44;;;5.13;67.24
61318;BME280;47201;40.428;-8.436;2023-03-01T02:53:15;101071.69;;;5.07;67.54
61318;BME280;47201;40.428;-8.436;2023-03-01T02:55:31;101064.78;;;5.06;67.52
61318;BME280;47201;40.428;-8.436;2023-03-01T02:57:50;101058.72;;;5.07;66.70
61318;BME280;47201;40.428;-8.436;2023-03-01T02:59:51;101053.38;;;5.01;67.17
61318;BME280;47201;40.428;-8.436;2023-03-01T03:01:53;101046.53;;;5.03;66.54
61318;BME280;47201;40.428;-8.436;2023-03-01T03:04:15;101046.53;;;5.03;66.13
61318;BME280;47201;40.428;-8.436;2023-03-01T03:06:22;101025.94;;;5.07;65.71
61318;BME280;47201;40.428;-8.436;2023-03-01T03:08:41;101027.56;;;5.04;66.41
61318;BME280;47201;40.428;-8.436;2023-03-01T03:10:43;101031.97;;;5.08;66.15
61318;BME280;47201;40.428;-8.436;2023-03-01T03:12:43;101028.53;;;5.07;65.74
61318;BME280;47201;40.428;-8.436;2023-03-01T03:14:47;101020.78;;;5.09;65.19
61318;BME280;47201;40.428;-8.436;2023-03-01T03:16:48;101033.19;;;5.21;64.43
61318;BME280;47201;40.428;-8.436;2023-03-01T03:19:07;101004.75;;;5.24;64.26
61318;BME280;47201;40.428;-8.436;2023-03-01T03:21:26;101015.88;;;5.20;65.03
61318;BME280;47201;40.428;-8.436;2023-03-01T03:23:46;101002.00;;;5.18;64.36
61318;BME280;47201;40.428;-8.436;2023-03-01T03:25:48;100996.53;;;5.07;64.64
61318;BME280;47201;40.428;-8.436;2023-03-01T03:28:08;101000.06;;;5.09;64.91
61318;BME280;47201;40.428;-8.436;2023-03-01T03:30:12;101017.44;;;5.13;63.82
61318;BME280;47201;40.428;-8.436;2023-03-01T03:32:16;101010.66;;;5.18;63.92
61318;BME280;47201;40.428;-8.436;2023-03-01T03:34:17;101014.09;;;5.17;64.25
61318;BME280;47201;40.428;-8.436;2023-03-01T03:36:19;101004.50;;;5.13;64.15
61318;BME280;47201;40.428;-8.436;2023-03-01T03:38:39;101002.66;;;5.11;63.97
61318;BME280;47201;40.428;-8.436;2023-03-01T03:40:40;101004.53;;;5.15;64.30
61318;BME280;47201;40.428;-8.436;2023-03-01T03:42:59;101001.81;;;5.10;64.76
61318;BME280;47201;40.428;-8.436;2023-03-01T03:45:00;101007.13;;;5.16;64.14
61318;BME280;47201;40.428;-8.436;2023-03-01T03:47:01;101010.25;;;5.03;64.99
61318;BME280;47201;40.428;-8.436;2023-03-01T03:49:20;101016.38;;;5.05;64.59
61318;BME280;47201;40.428;-8.436;2023-03-01T03:51:22;101004.97;;;4.98;64.79
61318;BME280;47201;40.428;-8.436;2023-03-01T03:53:23;101008.09;;;4.86;65.68
61318;BME280;47201;40.428;-8.436;2023-03-01T03:55:25;101009.75;;;4.84;65.39
61318;BME280;47201;40.428;-8.436;2023-03-01T03:57:30;101005.72;;;4.94;64.46
61318;BME280;47201;40.428;-8.436;2023-03-01T03:59:49;100992.66;;;4.89;65.06
61318;BME280;47201;40.428;-8.436;2023-03-01T04:02:08;100989.13;;;4.87;64.74
61318;BME280;47201;40.428;-8.436;2023-03-01T04:04:27;100990.59;;;4.78;64.82
61318;BME280;47201;40.428;-8.436;2023-03-01T04:06:27;100997.47;;;4.77;65.01
61318;BME280;47201;40.428;-8.436;2023-03-01T04:08:29;100981.22;;;4.83;64.17
61318;BME280;47201;40.428;-8.436;2023-03-01T04:10:52;100999.19;;;4.75;64.54
61318;BME280;47201;40.428;-8.436;2023-03-01T04:12:53;100999.22;;;4.76;64.47
61318;BME280;47201;40.428;-8.436;2023-03-01T04:15:17;100994.06;;;4.78;64.18
61318;BME280;47201;40.428;-8.436;2023-03-01T04:17:41;100999.31;;;4.80;63.97
61318;BME280;47201;40.428;-8.436;2023-03-01T04:19:41;100987.88;;;4.73;63.63
61318;BME280;47201;40.428;-8.436;2023-03-01T04:21:47;100999.25;;;4.78;63.86
61318;BME280;47201;40.428;-8.436;2023-03-01T04:23:47;100993.84;;;4.69;64.29
61318;BME280;47201;40.428;-8.436;2023-03-01T04:25:50;100988.00;;;4.78;62.89
61318;BME280;47201;40.428;-8.436;2023-03-01T04:27:57;100991.47;;;4.78;63.15
61318;BME280;47201;40.428;-8.436;2023-03-01T04:30:17;100996.47;;;4.70;64.07
61318;BME280;47201;40.428;-8.436;2023-03-01T04:32:35;100992.88;;;4.65;63.92
61318;BME280;47201;40.428;-8.436;2023-03-01T04:34:54;100994.50;;;4.62;64.01
61318;BME280;47201;40.428;-8.436;2023-03-01T04:36:55;101004.09;;;4.66;63.79
61318;BME280;47201;40.428;-8.436;2023-03-01T04:39:18;100991.16;;;4.66;63.88
61318;BME280;47201;40.428;-8.436;2023-03-01T04:41:20;100990.38;;;4.70;63.17
61318;BME280;47201;40.428;-8.436;2023-03-01T04:43:20;101009.38;;;4.69;63.42
61318;BME280;47201;40.428;-8.436;2023-03-01T04:45:21;100997.16;;;4.65;63.41
61318;BME280;47201;40.428;-8.436;2023-03-01T04:47:22;101011.84;;;4.64;63.60
61318;BME280;47201;40.428;-8.436;2023-03-01T04:49:41;101013.41;;;4.59;63.54
61318;BME280;47201;40.428;-8.436;2023-03-01T04:52:01;101021.81;;;4.52;64.36
61318;BME280;47201;40.428;-8.436;2023-03-01T04:54:05;101020.94;;;4.50;63.32
61318;BME280;47201;40.428;-8.436;2023-03-01T04:56:09;101020.97;;;4.51;62.99
61318;BME280;47201;40.428;-8.436;2023-03-01T04:58:28;101022.72;;;4.52;63.14
61318;BME280;47201;40.428;-8.436;2023-03-01T05:00:28;101025.56;;;4.62;62.72
61318;BME280;47201;40.428;-8.436;2023-03-01T05:05:12;101028.41;;;4.71;61.92
61318;BME280;47201;40.428;-8.436;2023-03-01T05:07:31;101024.78;;;4.64;62.53
61318;BME280;47201;40.428;-8.436;2023-03-01T05:09:31;101024.66;;;4.59;62.83
61318;BME280;47201;40.428;-8.436;2023-03-01T05:11:32;101021.28;;;4.64;62.62
61318;BME280;47201;40.428;-8.436;2023-03-01T05:13:36;101030.56;;;4.55;63.23
61318;BME280;47201;40.428;-8.436;2023-03-01T05:15:37;101037.47;;;4.55;63.27
61318;BME280;47201;40.428;-8.436;2023-03-01T05:17:38;101043.38;;;4.51;63.59
61318;BME280;47201;40.428;-8.436;2023-03-01T05:19:38;101033.09;;;4.52;63.50
61318;BME280;47201;40.428;-8.436;2023-03-01T05:21:39;101040.03;;;4.53;64.13
61318;BME280;47201;40.428;-8.436;2023-03-01T05:23:58;101029.38;;;4.44;64.45
61318;BME280;47201;40.428;-8.436;2023-03-01T05:26:17;101029.38;;;4.44;63.92
61318;BME280;47201;40.428;-8.436;2023-03-01T05:28:34;101030.00;;;4.35;64.41
61318;BME280;47201;40.428;-8.436;2023-03-01T05:30:34;101033.31;;;4.31;64.75
61318;BME280;47201;40.428;-8.436;2023-03-01T05:32:35;101031.25;;;4.19;64.95
61318;BME280;47201;40.428;-8.436;2023-03-01T05:34:54;101028.16;;;4.02;67.08
61318;BME280;47201;40.428;-8.436;2023-03-01T05:36:55;101035.81;;;3.99;65.58
61318;BME280;47201;40.428;-8.436;2023-03-01T05:38:55;101041.09;;;4.02;65.88
61318;BME280;47201;40.428;-8.436;2023-03-01T05:40:57;101048.72;;;3.97;66.26
61318;BME280;47201;40.428;-8.436;2023-03-01T05:42:57;101044.56;;;4.03;65.66
61318;BME280;47201;40.428;-8.436;2023-03-01T05:45:16;101044.00;;;4.13;64.24
61318;BME280;47201;40.428;-8.436;2023-03-01T05:47:36;101047.44;;;4.12;65.37
61318;BME280;47201;40.428;-8.436;2023-03-01T05:49:55;101044.66;;;4.06;65.39
61318;BME280;47201;40.428;-8.436;2023-03-01T05:52:16;101045.31;;;3.99;65.78
61318;BME280;47201;40.428;-8.436;2023-03-01T05:54:18;101048.84;;;4.02;66.89
61318;BME280;47201;40.428;-8.436;2023-03-01T05:56:19;101048.53;;;3.91;67.48
61318;BME280;47201;40.428;-8.436;2023-03-01T05:58:22;101049.03;;;3.79;67.60
61318;BME280;47201;40.428;-8.436;2023-03-01T06:00:22;101051.78;;;3.86;66.57
61318;BME280;47201;40.428;-8.436;2023-03-01T06:02:23;101054.50;;;3.89;67.13
61318;BME280;47201;40.428;-8.436;2023-03-01T06:04:23;101054.19;;;4.07;64.50
61318;BME280;47201;40.428;-8.436;2023-03-01T06:06:24;101063.63;;;4.06;64.83
61318;BME280;47201;40.428;-8.436;2023-03-01T06:08:47;101063.56;;;4.03;65.50
61318;BME280;47201;40.428;-8.436;2023-03-01T06:10:48;101069.53;;;4.01;66.84
61318;BME280;47201;40.428;-8.436;2023-03-01T06:12:48;101074.69;;;4.01;66.86
61318;BME280;47201;40.428;-8.436;2023-03-01T06:15:08;101072.88;;;3.98;66.44
61318;BME280;47201;40.428;-8.436;2023-03-01T06:17:10;101078.81;;;3.95;65.93
61318;BME280;47201;40.428;-8.436;2023-03-01T06:19:10;101070.88;;;3.89;66.25
61318;BME280;47201;40.428;-8.436;2023-03-01T06:21:10;101073.38;;;3.86;65.98
61318;BME280;47201;40.428;-8.436;2023-03-01T06:23:29;101076.19;;;3.94;64.71
61318;BME280;47201;40.428;-8.436;2023-03-01T06:25:30;101080.09;;;4.08;64.02
61318;BME280;47201;40.428;-8.436;2023-03-01T06:27:49;101084.31;;;4.06;64.51
61318;BME280;47201;40.428;-8.436;2023-03-01T06:30:09;101086.84;;;4.03;64.53
61318;BME280;47201;40.428;-8.436;2023-03-01T06:32:10;101077.16;;;3.97;65.40
61318;BME280;47201;40.428;-8.436;2023-03-01T06:34:11;101081.47;;;3.97;65.66
61318;BME280;47201;40.428;-8.436;2023-03-01T06:36:17;101080.28;;;3.87;65.77
61318;BME280;47201;40.428;-8.436;2023-03-01T06:38:18;101080.00;;;3.78;66.13
61318;BME280;47201;40.428;-8.436;2023-03-01T06:40:20;101086.72;;;3.73;66.64
61318;BME280;47201;40.428;-8.436;2023-03-01T06:42:21;101089.09;;;3.67;67.61
61318;BME280;47201;40.428;-8.436;2023-03-01T06:44:40;101095.84;;;3.61;68.83
61318;BME280;47201;40.428;-8.436;2023-03-01T06:46:40;101102.25;;;3.47;69.40
61318;BME280;47201;40.428;-8.436;2023-03-01T06:48:41;101105.25;;;3.33;70.89
61318;BME280;47201;40.428;-8.436;2023-03-01T06:50:42;101094.72;;;3.27;71.06
61318;BME280;47201;40.428;-8.436;2023-03-01T06:52:42;101082.28;;;3.17;71.81
61318;BME280;47201;40.428;-8.436;2023-03-01T06:54:44;101094.06;;;3.09;71.38
61318;BME280;47201;40.428;-8.436;2023-03-01T06:56:48;101097.22;;;3.00;72.37
61318;BME280;47201;40.428;-8.436;2023-03-01T06:59:07;101107.25;;;2.92;73.74
61318;BME280;47201;40.428;-8.436;2023-03-01T07:01:08;101112.09;;;2.83;75.48
61318;BME280;47201;40.428;-8.436;2023-03-01T07:03:27;101110.22;;;2.79;75.90
61318;BME280;47201;40.428;-8.436;2023-03-01T07:05:28;101104.28;;;2.81;77.53
61318;BME280;47201;40.428;-8.436;2023-03-01T07:07:47;101105.28;;;2.85;77.60
61318;BME280;47201;40.428;-8.436;2023-03-01T07:10:07;101104.22;;;2.80;77.84
61318;BME280;47201;40.428;-8.436;2023-03-01T07:12:07;101111.22;;;2.82;76.66
61318;BME280;47201;40.428;-8.436;2023-03-01T07:14:27;101108.22;;;2.72;74.66
61318;BME280;47201;40.428;-8.436;2023-03-01T07:16:27;101117.50;;;2.66;75.24
61318;BME280;47201;40.428;-8.436;2023-03-01T07:18:28;101111.22;;;2.60;74.14
61318;BME280;47201;40.428;-8.436;2023-03-01T07:20:28;101115.53;;;2.59;75.04
61318;BME280;47201;40.428;-8.436;2023-03-01T07:22:29;101120.88;;;2.64;73.82
61318;BME280;47201;40.428;-8.436;2023-03-01T07:24:29;101125.47;;;2.73;72.71
61318;BME280;47201;40.428;-8.436;2023-03-01T07:26:30;101125.09;;;2.86;70.40
61318;BME280;47201;40.428;-8.436;2023-03-01T07:28:49;101123.84;;;2.99;71.26
61318;BME280;47201;40.428;-8.436;2023-03-01T07:31:08;101135.44;;;3.10;73.49
61318;BME280;47201;40.428;-8.436;2023-03-01T07:33:28;101135.66;;;3.16;71.60
61318;BME280;47201;40.428;-8.436;2023-03-01T07:35:29;101127.16;;;3.19;70.86
61318;BME280;47201;40.428;-8.436;2023-03-01T07:37:29;101139.34;;;3.23;70.65
61318;BME280;47201;40.428;-8.436;2023-03-01T07:39:30;101147.00;;;3.20;70.04
61318;BME280;47201;40.428;-8.436;2023-03-01T07:41:31;101148.88;;;3.24;70.61
61318;BME280;47201;40.428;-8.436;2023-03-01T07:43:50;101152.28;;;3.23;72.63
61318;BME280;47201;40.428;-8.436;2023-03-01T07:46:09;101152.38;;;3.26;72.46
61318;BME280;47201;40.428;-8.436;2023-03-01T07:48:29;101155.19;;;3.32;73.94
61318;BME280;47201;40.428;-8.436;2023-03-01T07:50:49;101158.84;;;3.39;73.78
61318;BME280;47201;40.428;-8.436;2023-03-01T07:52:49;101162.53;;;3.97;74.50
61318;BME280;47201;40.428;-8.436;2023-03-01T07:54:50;101162.59;;;5.13;69.31
61318;BME280;47201;40.428;-8.436;2023-03-01T07:56:50;101152.31;;;6.57;63.64
61318;BME280;47201;40.428;-8.436;2023-03-01T07:59:09;101166.66;;;8.21;57.55
61318;BME280;47201;40.428;-8.436;2023-03-01T08:01:28;101165.78;;;9.56;52.35
61318;BME280;47201;40.428;-8.436;2023-03-01T08:03:48;101158.25;;;11.46;48.66
61318;BME280;47201;40.428;-8.436;2023-03-01T08:06:08;101167.72;;;12.99;44.06
61318;BME280;47201;40.428;-8.436;2023-03-01T08:08:27;101158.97;;;14.27;40.79
61318;BME280;47201;40.428;-8.436;2023-03-01T08:10:47;101155.06;;;15.37;39.88
61318;BME280;47201;40.428;-8.436;2023-03-01T08:13:06;101157.69;;;16.47;37.72
61318;BME280;47201;40.428;-8.436;2023-03-01T08:15:25;101156.22;;;17.21;37.82
61318;BME280;47201;40.428;-8.436;2023-03-01T08:17:27;101162.94;;;17.75;37.49
61318;BME280;47201;40.428;-8.436;2023-03-01T08:19:27;101151.56;;;18.41;35.70
61318;BME280;47201;40.428;-8.436;2023-03-01T08:21:28;101158.00;;;18.64;35.53
61318;BME280;47201;40.428;-8.436;2023-03-01T08:23:29;101156.59;;;18.17;37.27
61318;BME280;47201;40.428;-8.436;2023-03-01T08:25:48;101158.34;;;17.82;39.06
61318;BME280;47201;40.428;-8.436;2023-03-01T08:27:49;101162.72;;;18.19;39.75
61318;BME280;47201;40.428;-8.436;2023-03-01T08:30:08;101159.50;;;18.08;41.75
61318;BME280;47201;40.428;-8.436;2023-03-01T08:32:27;101157.53;;;18.16;43.88
61318;BME280;47201;40.428;-8.436;2023-03-01T08:34:28;101167.44;;;18.08;45.11
61318;BME280;47201;40.428;-8.436;2023-03-01T08:36:32;101156.44;;;17.87;47.50
61318;BME280;47201;40.428;-8.436;2023-03-01T08:38:34;101159.97;;;18.24;48.57
61318;BME280;47201;40.428;-8.436;2023-03-01T08:40:34;101162.50;;;18.93;48.24
61318;BME280;47201;40.428;-8.436;2023-03-01T08:42:38;101158.78;;;19.29;48.46
61318;BME280;47201;40.428;-8.436;2023-03-01T08:44:38;101164.19;;;19.26;50.13
61318;BME280;47201;40.428;-8.436;2023-03-01T08:46:40;101160.03;;;19.47;50.60
61318;BME280;47201;40.428;-8.436;2023-03-01T08:48:41;101158.38;;;19.43;52.38
61318;BME280;47201;40.428;-8.436;2023-03-01T08:50:47;101154.88;;;19.69;52.48
61318;BME280;47201;40.428;-8.436;2023-03-01T08:52:48;101154.75;;;19.45;53.32
61318;BME280;47201;40.428;-8.436;2023-03-01T08:55:07;101155.63;;;18.86;55.87
61318;BME280;47201;40.428;-8.436;2023-03-01T08:57:08;101154.31;;;19.01;56.61
61318;BME280;47201;40.428;-8.436;2023-03-01T08:59:13;101148.69;;;19.13;57.27
61318;BME280;47201;40.428;-8.436;2023-03-01T09:01:15;101149.50;;;19.44;57.62
61318;BME280;47201;40.428;-8.436;2023-03-01T09:03:16;101155.00;;;20.20;56.39
61318;BME280;47201;40.428;-8.436;2023-03-01T09:05:16;101154.34;;;21.11;55.06
61318;BME280;47201;40.428;-8.436;2023-03-01T09:07:17;101160.28;;;21.86;53.80
61318;BME280;47201;40.428;-8.436;2023-03-01T09:09:17;101151.84;;;22.38;53.69
61318;BME280;47201;40.428;-8.436;2023-03-01T09:11:20;101141.66;;;22.27;55.18
61318;BME280;47201;40.428;-8.436;2023-03-01T09:13:22;101148.47;;;22.14;56.18
61318;BME280;47201;40.428;-8.436;2023-03-01T09:15:24;101138.97;;;22.29;55.84
61318;BME280;47201;40.428;-8.436;2023-03-01T09:17:25;101131.69;;;22.53;56.53
61318;BME280;47201;40.428;-8.436;2023-03-01T09:19:25;101131.41;;;22.59;56.64
61318;BME280;47201;40.428;-8.436;2023-03-01T09:21:26;101126.19;;;22.77;57.07
61318;BME280;47201;40.428;-8.436;2023-03-01T09:23:26;101136.41;;;22.67;57.40
61318;BME280;47201;40.428;-8.436;2023-03-01T09:25:27;101130.66;;;22.95;58.01
61318;BME280;47201;40.428;-8.436;2023-03-01T09:27:28;101122.22;;;22.66;58.85
61318;BME280;47201;40.428;-8.436;2023-03-01T09:29:28;101123.53;;;23.15;58.63
61318;BME280;47201;40.428;-8.436;2023-03-01T09:31:29;101127.84;;;22.98;58.94
61318;BME280;47201;40.428;-8.436;2023-03-01T09:33:30;101127.00;;;23.17;59.42
61318;BME280;47201;40.428;-8.436;2023-03-01T09:35:55;101124.88;;;23.60;59.10
61318;BME280;47201;40.428;-8.436;2023-03-01T09:37:55;101135.47;;;24.34;58.59
61318;BME280;47201;40.428;-8.436;2023-03-01T09:40:21;101129.22;;;24.84;58.44
61318;BME280;47201;40.428;-8.436;2023-03-01T09:42:23;101120.03;;;24.39;59.13
61318;BME280;47201;40.428;-8.436;2023-03-01T09:46:52;101127.16;;;25.38;58.22
61318;BME280;47201;40.428;-8.436;2023-03-01T09:49:17;101122.66;;;25.85;58.40
61318;BME280;47201;40.428;-8.436;2023-03-01T09:51:37;101123.28;;;26.35;57.85
61318;BME280;47201;40.428;-8.436;2023-03-01T09:53:38;101119.38;;;26.40;58.04
61318;BME280;47201;40.428;-8.436;2023-03-01T09:59:46;101122.09;;;23.64;62.73
61318;BME280;47201;40.428;-8.436;2023-03-01T10:06:20;101110.25;;;23.13;64.67
61318;BME280;47201;40.428;-8.436;2023-03-01T10:08:58;101112.00;;;24.23;63.77
61318;BME280;47201;40.428;-8.436;2023-03-01T10:11:00;101104.28;;;25.32;62.45
61318;BME280;47201;40.428;-8.436;2023-03-01T10:13:03;101103.25;;;25.81;61.98
61318;BME280;47201;40.428;-8.436;2023-03-01T10:15:14;101110.56;;;25.63;61.67
61318;BME280;47201;40.428;-8.436;2023-03-01T10:18:09;101106.22;;;26.21;61.48
61318;BME280;47201;40.428;-8.436;2023-03-01T10:20:15;101097.06;;;26.83;60.89
61318;BME280;47201;40.428;-8.436;2023-03-01T10:22:25;101098.28;;;25.89;62.02
61318;BME280;47201;40.428;-8.436;2023-03-01T10:24:28;101096.28;;;26.09;61.97
61318;BME280;47201;40.428;-8.436;2023-03-01T10:27:00;101089.38;;;24.46;63.40
61318;BME280;47201;40.428;-8.436;2023-03-01T10:29:29;101083.53;;;23.34;64.58
61318;BME280;47201;40.428;-8.436;2023-03-01T10:31:48;101083.97;;;23.97;64.43
61318;BME280;47201;40.428;-8.436;2023-03-01T10:33:49;101085.06;;;25.09;63.21
61318;BME280;47201;40.428;-8.436;2023-03-01T10:35:54;101071.34;;;25.92;61.97
61318;BME280;47201;40.428;-8.436;2023-03-01T10:38:08;101070.84;;;23.92;64.39
61318;BME280;47201;40.428;-8.436;2023-03-01T10:40:09;101073.72;;;23.35;64.89
61318;BME280;47201;40.428;-8.436;2023-03-01T10:42:19;101074.50;;;24.58;63.23
61318;BME280;47201;40.428;-8.436;2023-03-01T10:44:39;101063.84;;;26.28;62.89
61318;BME280;47201;40.428;-8.436;2023-03-01T10:46:40;101075.69;;;26.53;61.82
61318;BME280;47201;40.428;-8.436;2023-03-01T10:48:41;101065.69;;;25.52;62.58
61318;BME280;47201;40.428;-8.436;2023-03-01T10:50:42;101066.72;;;25.49;62.69
61318;BME280;47201;40.428;-8.436;2023-03-01T10:52:43;101071.13;;;24.54;63.55
61318;BME280;47201;40.428;-8.436;2023-03-01T10:59:47;101066.13;;;24.48;63.84
61318;BME280;47201;40.428;-8.436;2023-03-01T11:06:19;101068.44;;;24.54;64.31
61318;BME280;47201;40.428;-8.436;2023-03-01T11:08:31;101058.84;;;26.22;63.04
61318;BME280;47201;40.428;-8.436;2023-03-01T11:10:33;101063.25;;;26.81;61.78
61318;BME280;47201;40.428;-8.436;2023-03-01T11:12:34;101055.88;;;26.26;62.81
61318;BME280;47201;40.428;-8.436;2023-03-01T11:14:38;101054.78;;;25.86;62.63
61318;BME280;47201;40.428;-8.436;2023-03-01T11:16:46;101053.81;;;26.17;62.67
61318;BME280;47201;40.428;-8.436;2023-03-01T11:18:55;101054.94;;;25.68;63.36
61318;BME280;47201;40.428;-8.436;2023-03-01T11:20:56;101057.66;;;23.54;64.80
61318;BME280;47201;40.428;-8.436;2023-03-01T11:23:01;101055.69;;;24.10;64.56
61318;BME280;47201;40.428;-8.436;2023-03-01T11:25:02;101051.59;;;24.70;64.10
61318;BME280;47201;40.428;-8.436;2023-03-01T11:27:06;101052.38;;;23.87;64.87
61318;BME280;47201;40.428;-8.436;2023-03-01T11:29:30;101049.81;;;25.33;63.50
61318;BME280;47201;40.428;-8.436;2023-03-01T11:31:33;101041.00;;;25.92;62.74
61318;BME280;47201;40.428;-8.436;2023-03-01T11:34:05;101043.47;;;24.55;63.80
61318;BME280;47201;40.428;-8.436;2023-03-01T11:36:13;101041.88;;;25.47;64.62
61318;BME280;47201;40.428;-8.436;2023-03-01T11:38:20;101036.78;;;25.73;64.73